createdAt,value
2019-03-10T00:00:15.509Z,4.45
2019-03-10T00:01:15.502Z,4.49
2019-03-10T00:02:15.496Z,4.45
2019-03-10T00:03:15.500Z,4.48
2019-03-10T00:04:15.473Z,4.48
2019-03-10T00:05:15.459Z,4.40
2019-03-10T00:06:15.453Z,4.35
2019-03-10T00:07:15.433Z,4.30
2019-03-10T00:08:15.417Z,4.28
2019-03-10T00:09:15.415Z,4.50
2019-03-10T00:10:15.406Z,4.37
2019-03-10T00:11:15.395Z,4.32
2019-03-10T00:12:15.410Z,4.38
2019-03-10T00:13:15.368Z,4.42
2019-03-10T00:14:15.361Z,4.41
2019-03-10T00:15:15.341Z,4.37
2019-03-10T00:16:15.340Z,4.32
2019-03-10T00:17:15.327Z,4.35
2019-03-10T00:18:15.334Z,4.44
2019-03-10T00:19:15.298Z,4.44
2019-03-10T00:20:15.290Z,4.38
2019-03-10T00:21:15.275Z,4.34
2019-03-10T00:22:15.307Z,4.24
2019-03-10T00:23:15.321Z,4.22
2019-03-10T00:24:15.253Z,4.22
2019-03-10T00:25:15.242Z,4.32
2019-03-10T00:26:15.249Z,4.48
2019-03-10T00:27:15.214Z,4.58
2019-03-10T00:28:15.213Z,4.49
2019-03-10T00:29:15.220Z,4.41
2019-03-10T00:30:15.184Z,4.40
2019-03-10T00:31:15.176Z,4.41
2019-03-10T00:32:15.166Z,4.37
2019-03-10T00:33:15.155Z,4.37
2019-03-10T00:34:16.746Z,4.30
2019-03-10T00:35:15.136Z,4.37
2019-03-10T00:36:15.119Z,4.41
2019-03-10T00:37:15.104Z,4.48
2019-03-10T00:38:15.104Z,4.45
2019-03-10T00:39:15.081Z,4.35
2019-03-10T00:40:15.080Z,4.30
2019-03-10T00:41:15.064Z,4.34
2019-03-10T00:42:15.052Z,4.35
2019-03-10T00:43:15.036Z,4.32
2019-03-10T00:44:15.076Z,4.37
2019-03-10T00:45:15.024Z,4.26
2019-03-10T00:46:15.115Z,4.35
2019-03-10T00:47:15.003Z,4.23
2019-03-10T00:48:15.013Z,4.22
2019-03-10T00:49:14.989Z,4.16
2019-03-10T00:50:14.982Z,4.17
2019-03-10T00:51:14.957Z,4.28
2019-03-10T00:52:14.942Z,4.30
2019-03-10T00:53:14.936Z,4.45
2019-03-10T00:54:14.965Z,4.45
2019-03-10T00:55:14.912Z,4.45
2019-03-10T00:56:14.899Z,4.42
2019-03-10T00:57:14.889Z,4.41
2019-03-10T00:58:14.874Z,4.45
2019-03-10T00:59:14.870Z,4.44
2019-03-10T01:00:14.862Z,4.45
2019-03-10T01:01:14.842Z,4.49
2019-03-10T01:02:14.872Z,4.45
2019-03-10T01:03:14.844Z,4.42
2019-03-10T01:04:14.835Z,4.49
2019-03-10T01:05:14.801Z,4.45
2019-03-10T01:06:14.788Z,4.45
2019-03-10T01:07:14.785Z,4.42
2019-03-10T01:08:14.803Z,4.35
2019-03-10T01:09:14.778Z,4.40
2019-03-10T01:10:14.766Z,4.30
2019-03-10T01:11:14.733Z,4.28
2019-03-10T01:12:14.728Z,4.20
2019-03-10T01:13:14.716Z,4.23
2019-03-10T01:14:14.735Z,4.19
2019-03-10T01:15:14.693Z,4.23
2019-03-10T01:16:14.710Z,4.08
2019-03-10T01:17:14.682Z,4.01
2019-03-10T01:18:14.657Z,4.06
2019-03-10T01:19:14.671Z,4.08
2019-03-10T01:20:14.637Z,4.14
2019-03-10T01:21:14.634Z,4.14
2019-03-10T01:22:14.613Z,4.30
2019-03-10T01:23:14.608Z,4.26
2019-03-10T01:24:14.599Z,4.24
2019-03-10T01:25:14.600Z,4.16
2019-03-10T01:26:14.581Z,4.20
2019-03-10T01:27:14.564Z,4.14
2019-03-10T01:28:14.549Z,4.30
2019-03-10T01:29:14.548Z,4.28
2019-03-10T01:30:14.538Z,4.26
2019-03-10T01:31:14.525Z,4.20
2019-03-10T01:32:14.506Z,4.19
2019-03-10T01:33:14.498Z,3.98
2019-03-10T01:34:14.487Z,3.99
2019-03-10T01:35:14.486Z,3.96
2019-03-10T01:36:14.475Z,3.96
2019-03-10T01:37:14.502Z,3.99
2019-03-10T01:38:14.449Z,4.06
2019-03-10T01:39:14.446Z,3.99
2019-03-10T01:40:14.459Z,3.91
2019-03-10T01:41:14.412Z,3.87
2019-03-10T01:42:14.402Z,3.96
2019-03-10T01:43:14.393Z,4.01
2019-03-10T01:44:14.379Z,3.96
2019-03-10T01:45:14.381Z,4.02
2019-03-10T01:46:14.396Z,3.96
2019-03-10T01:47:14.347Z,3.96
2019-03-10T01:48:14.335Z,3.99
2019-03-10T01:49:14.321Z,4.02
2019-03-10T01:50:14.311Z,3.87
2019-03-10T01:51:14.310Z,3.91
2019-03-10T01:52:14.318Z,4.01
2019-03-10T01:53:14.278Z,4.06
2019-03-10T01:54:14.352Z,3.95
2019-03-10T01:55:14.256Z,3.86
2019-03-10T01:56:14.256Z,3.94
2019-03-10T01:57:14.238Z,4.01
2019-03-10T01:58:14.264Z,4.04
2019-03-10T01:59:14.215Z,4.08
2019-03-10T02:00:14.217Z,4.05
2019-03-10T02:01:14.193Z,4.08
2019-03-10T02:02:14.211Z,4.12
2019-03-10T02:03:14.174Z,4.10
2019-03-10T02:04:14.169Z,4.30
2019-03-10T02:05:14.162Z,4.13
2019-03-10T02:06:14.142Z,4.04
2019-03-10T02:07:14.141Z,4.14
2019-03-10T02:08:14.116Z,4.13
2019-03-10T02:09:14.104Z,3.98
2019-03-10T02:10:14.143Z,3.94
2019-03-10T02:11:14.089Z,3.91
2019-03-10T02:12:14.076Z,3.94
2019-03-10T02:13:14.060Z,3.94
2019-03-10T02:14:14.055Z,3.87
2019-03-10T02:15:14.051Z,3.70
2019-03-10T02:16:14.042Z,3.77
2019-03-10T02:17:14.023Z,3.76
2019-03-10T02:18:14.014Z,3.65
2019-03-10T02:19:14.102Z,3.73
2019-03-10T02:20:13.990Z,3.58
2019-03-10T02:21:13.987Z,3.62
2019-03-10T02:22:13.964Z,3.51
2019-03-10T02:23:13.955Z,3.63
2019-03-10T02:24:23.399Z,3.58
2019-03-10T02:25:14.937Z,3.51
2019-03-10T02:26:13.938Z,3.56
2019-03-10T02:27:13.928Z,3.58
2019-03-10T02:28:13.898Z,3.56
2019-03-10T02:29:13.888Z,3.50
2019-03-10T02:30:13.885Z,3.42
2019-03-10T02:31:13.879Z,3.51
2019-03-10T02:32:13.866Z,3.41
2019-03-10T02:33:13.853Z,3.36
2019-03-10T02:34:13.834Z,3.42
2019-03-10T02:35:13.829Z,3.48
2019-03-10T02:36:13.823Z,3.45
2019-03-10T02:37:13.832Z,3.53
2019-03-10T02:38:13.808Z,3.56
2019-03-10T02:39:13.781Z,3.41
2019-03-10T02:40:14.642Z,3.42
2019-03-10T02:41:15.659Z,3.41
2019-03-10T02:42:14.647Z,3.34
2019-03-10T02:43:13.746Z,3.37
2019-03-10T02:44:13.726Z,3.25
2019-03-10T02:45:13.718Z,3.34
2019-03-10T02:46:13.704Z,3.31
2019-03-10T02:47:13.707Z,3.34
2019-03-10T02:48:13.684Z,3.28
2019-03-10T02:49:13.673Z,3.21
2019-03-10T02:50:13.665Z,3.23
2019-03-10T02:51:13.650Z,3.22
2019-03-10T02:52:13.650Z,3.25
2019-03-10T02:53:13.628Z,3.28
2019-03-10T02:54:13.624Z,3.37
2019-03-10T02:55:13.607Z,3.40
2019-03-10T02:56:13.606Z,3.31
2019-03-10T02:57:13.605Z,3.37
2019-03-10T02:58:13.586Z,3.44
2019-03-10T02:59:13.574Z,3.40
2019-03-10T03:00:13.564Z,3.41
2019-03-10T03:01:13.572Z,3.40
2019-03-10T03:02:13.537Z,3.41
2019-03-10T03:03:13.564Z,3.41
2019-03-10T03:04:13.508Z,3.34
2019-03-10T03:05:13.498Z,3.41
2019-03-10T03:06:13.496Z,3.40
2019-03-10T03:07:13.485Z,3.31
2019-03-10T03:08:16.649Z,3.42
2019-03-10T03:09:13.483Z,3.41
2019-03-10T03:10:13.445Z,3.42
2019-03-10T03:11:13.435Z,3.44
2019-03-10T03:12:13.427Z,3.44
2019-03-10T03:13:13.410Z,3.42
2019-03-10T03:14:13.418Z,3.36
2019-03-10T03:15:13.395Z,3.41
2019-03-10T03:16:13.437Z,3.42
2019-03-10T03:17:13.384Z,3.40
2019-03-10T03:18:13.361Z,3.31
2019-03-10T03:19:13.360Z,3.23
2019-03-10T03:20:13.346Z,3.26
2019-03-10T03:21:13.332Z,3.36
2019-03-10T03:22:13.314Z,3.25
2019-03-10T03:23:13.310Z,3.18
2019-03-10T03:24:13.308Z,3.22
2019-03-10T03:25:13.286Z,3.36
2019-03-10T03:26:13.275Z,3.41
2019-03-10T03:27:13.264Z,3.44
2019-03-10T03:28:13.261Z,3.47
2019-03-10T03:29:13.273Z,3.48
2019-03-10T03:30:13.229Z,3.41
2019-03-10T03:31:13.271Z,3.47
2019-03-10T03:32:13.207Z,3.40
2019-03-10T03:33:13.197Z,3.48
2019-03-10T03:34:13.189Z,3.44
2019-03-10T03:35:13.194Z,3.50
2019-03-10T03:36:13.166Z,3.48
2019-03-10T03:37:13.178Z,3.55
2019-03-10T03:38:13.151Z,3.56
2019-03-10T03:39:13.132Z,3.58
2019-03-10T03:40:13.139Z,3.58
2019-03-10T03:41:13.145Z,3.56
2019-03-10T03:42:13.098Z,3.60
2019-03-10T03:43:13.090Z,3.60
2019-03-10T03:44:13.079Z,3.63
2019-03-10T03:45:13.070Z,3.58
2019-03-10T03:46:13.059Z,3.50
2019-03-10T03:47:13.051Z,3.55
2019-03-10T03:48:13.038Z,3.56
2019-03-10T03:49:13.025Z,3.58
2019-03-10T03:50:13.011Z,3.58
2019-03-10T03:51:13.006Z,3.59
2019-03-10T03:52:13.049Z,3.74
2019-03-10T03:53:12.984Z,3.56
2019-03-10T03:54:12.976Z,3.58
2019-03-10T03:55:12.957Z,3.45
2019-03-10T03:56:12.944Z,3.47
2019-03-10T03:57:12.943Z,3.53
2019-03-10T03:58:12.934Z,3.44
2019-03-10T03:59:12.916Z,3.50
2019-03-10T04:00:12.929Z,3.44
2019-03-10T04:01:12.892Z,3.45
2019-03-10T04:02:12.891Z,3.47
2019-03-10T04:03:12.879Z,3.56
2019-03-10T04:04:12.871Z,3.63
2019-03-10T04:05:12.855Z,3.58
2019-03-10T04:06:12.837Z,3.47
2019-03-10T04:07:12.831Z,3.56
2019-03-10T04:08:12.952Z,3.58
2019-03-10T04:09:12.803Z,3.60
2019-03-10T04:10:12.793Z,3.58
2019-03-10T04:11:12.799Z,3.55
2019-03-10T04:12:12.807Z,3.58
2019-03-10T04:13:12.804Z,3.65
2019-03-10T04:14:13.633Z,3.62
2019-03-10T04:15:12.744Z,3.40
2019-03-10T04:16:12.743Z,3.47
2019-03-10T04:17:12.728Z,3.58
2019-03-10T04:18:12.716Z,3.60
2019-03-10T04:19:12.711Z,3.59
2019-03-10T04:20:12.703Z,3.58
2019-03-10T04:21:12.675Z,3.56
2019-03-10T04:22:12.664Z,3.48
2019-03-10T04:23:12.663Z,3.45
2019-03-10T04:24:12.666Z,3.50
2019-03-10T04:25:12.646Z,3.60
2019-03-10T04:26:12.625Z,3.58
2019-03-10T04:27:12.617Z,3.58
2019-03-10T04:28:12.603Z,3.66
2019-03-10T04:29:12.602Z,3.58
2019-03-10T04:30:12.624Z,3.70
2019-03-10T04:31:12.565Z,3.73
2019-03-10T04:32:12.560Z,3.65
2019-03-10T04:33:12.548Z,3.59
2019-03-10T04:34:12.537Z,3.58
2019-03-10T04:35:12.530Z,3.60
2019-03-10T04:36:12.527Z,3.58
2019-03-10T04:37:12.503Z,3.58
2019-03-10T04:38:12.495Z,3.60
2019-03-10T04:39:12.475Z,3.58
2019-03-10T04:40:12.468Z,3.73
2019-03-10T04:41:12.497Z,3.62
2019-03-10T04:42:12.444Z,3.68
2019-03-10T04:43:12.441Z,3.78
2019-03-10T04:44:12.426Z,3.62
2019-03-10T04:45:12.421Z,3.76
2019-03-10T04:46:12.407Z,3.73
2019-03-10T04:47:12.395Z,3.70
2019-03-10T04:48:12.384Z,3.73
2019-03-10T04:49:12.371Z,3.73
2019-03-10T04:50:12.382Z,3.70
2019-03-10T04:51:12.356Z,3.78
2019-03-10T04:52:12.342Z,3.73
2019-03-10T04:53:12.323Z,3.70
2019-03-10T04:54:12.313Z,3.76
2019-03-10T04:55:12.307Z,3.68
2019-03-10T04:56:12.296Z,3.76
2019-03-10T04:57:12.296Z,3.76
2019-03-10T04:58:12.290Z,3.76
2019-03-10T04:59:12.263Z,3.70
2019-03-10T05:00:12.255Z,3.73
2019-03-10T05:01:12.242Z,3.69
2019-03-10T05:02:12.235Z,3.73
2019-03-10T05:03:12.215Z,3.69
2019-03-10T05:04:12.204Z,3.78
2019-03-10T05:05:12.199Z,3.70
2019-03-10T05:06:12.190Z,3.76
2019-03-10T05:07:12.229Z,3.86
2019-03-10T05:08:12.161Z,3.78
2019-03-10T05:09:12.155Z,3.69
2019-03-10T05:10:12.150Z,3.68
2019-03-10T05:11:12.133Z,3.84
2019-03-10T05:12:12.126Z,3.87
2019-03-10T05:13:12.126Z,3.86
2019-03-10T05:14:12.104Z,3.88
2019-03-10T05:15:12.086Z,3.91
2019-03-10T05:16:12.082Z,3.81
2019-03-10T05:17:12.082Z,3.96
2019-03-10T05:18:12.069Z,3.87
2019-03-10T05:19:12.060Z,3.77
2019-03-10T05:20:12.037Z,3.78
2019-03-10T05:21:12.040Z,3.81
2019-03-10T05:22:12.597Z,3.81
2019-03-10T05:23:12.588Z,3.73
2019-03-10T05:24:12.596Z,3.70
2019-03-10T05:25:13.613Z,3.77
2019-03-10T05:26:13.609Z,3.86
2019-03-10T05:27:11.956Z,3.88
2019-03-10T05:28:11.950Z,3.86
2019-03-10T05:29:11.939Z,3.83
2019-03-10T05:30:11.924Z,3.87
2019-03-10T05:31:11.921Z,3.77
2019-03-10T05:32:11.917Z,3.83
2019-03-10T05:33:11.900Z,3.87
2019-03-10T05:34:11.882Z,3.87
2019-03-10T05:35:11.898Z,3.81
2019-03-10T05:36:11.866Z,3.86
2019-03-10T05:37:11.862Z,3.68
2019-03-10T05:38:11.839Z,3.76
2019-03-10T05:39:11.831Z,3.73
2019-03-10T05:40:11.815Z,3.69
2019-03-10T05:41:11.805Z,3.70
2019-03-10T05:42:12.099Z,3.69
2019-03-10T05:43:11.822Z,3.73
2019-03-10T05:44:11.794Z,3.80
2019-03-10T05:45:11.768Z,3.78
2019-03-10T05:46:11.792Z,3.77
2019-03-10T05:47:11.745Z,3.73
2019-03-10T05:48:11.734Z,3.74
2019-03-10T05:49:11.719Z,3.68
2019-03-10T05:50:11.713Z,3.81
2019-03-10T05:51:11.697Z,3.83
2019-03-10T05:52:11.701Z,3.80
2019-03-10T05:53:11.681Z,3.81
2019-03-10T05:54:11.670Z,3.77
2019-03-10T05:55:11.659Z,3.77
2019-03-10T05:56:11.653Z,3.81
2019-03-10T05:57:11.639Z,3.73
2019-03-10T05:58:11.633Z,3.80
2019-03-10T05:59:11.615Z,3.73
2019-03-10T06:00:11.606Z,3.83
2019-03-10T06:01:11.589Z,3.74
2019-03-10T06:02:11.576Z,3.83
2019-03-10T06:03:11.574Z,3.88
2019-03-10T06:04:11.602Z,3.92
2019-03-10T06:05:11.551Z,4.04
2019-03-10T06:06:11.533Z,3.87
2019-03-10T06:07:11.535Z,4.04
2019-03-10T06:08:11.513Z,4.06
2019-03-10T06:09:11.517Z,4.14
2019-03-10T06:10:11.491Z,4.17
2019-03-10T06:11:11.502Z,4.19
2019-03-10T06:12:12.078Z,4.20
2019-03-10T06:13:12.102Z,4.16
2019-03-10T06:14:11.450Z,4.26
2019-03-10T06:15:11.439Z,4.34
2019-03-10T06:16:11.434Z,4.31
2019-03-10T06:17:11.419Z,4.35
2019-03-10T06:18:13.841Z,4.42
2019-03-10T06:19:11.403Z,4.40
2019-03-10T06:20:11.391Z,4.49
2019-03-10T06:21:11.376Z,4.38
2019-03-10T06:22:11.365Z,4.41
2019-03-10T06:23:11.356Z,4.35
2019-03-10T06:24:11.349Z,4.34
2019-03-10T06:25:11.339Z,4.35
2019-03-10T06:26:11.322Z,4.20
2019-03-10T06:27:11.310Z,4.24
2019-03-10T06:28:11.303Z,4.32
2019-03-10T06:29:11.284Z,4.23
2019-03-10T06:30:11.289Z,4.26
2019-03-10T06:31:11.276Z,4.23
2019-03-10T06:32:11.256Z,4.31
2019-03-10T06:33:11.247Z,4.22
2019-03-10T06:34:11.253Z,4.22
2019-03-10T06:35:11.243Z,4.32
2019-03-10T06:36:11.208Z,4.44
2019-03-10T06:37:11.198Z,4.66
2019-03-10T06:38:11.186Z,4.80
2019-03-10T06:39:11.182Z,4.97
2019-03-10T06:40:11.180Z,5.47
2019-03-10T06:41:11.153Z,5.30
2019-03-10T06:42:11.146Z,5.18
2019-03-10T06:43:11.132Z,5.38
2019-03-10T06:44:11.128Z,5.39
2019-03-10T06:45:11.127Z,5.44
2019-03-10T06:46:11.101Z,5.43
2019-03-10T06:47:11.114Z,5.61
2019-03-10T06:48:11.097Z,5.86
2019-03-10T06:49:11.066Z,5.97
2019-03-10T06:50:12.370Z,6.30
2019-03-10T06:51:11.057Z,6.38
2019-03-10T06:52:11.046Z,6.42
2019-03-10T06:53:11.059Z,6.22
2019-03-10T06:54:11.012Z,6.67
2019-03-10T06:55:11.001Z,6.70
2019-03-10T06:56:10.991Z,6.59
2019-03-10T06:57:10.984Z,6.57
2019-03-10T06:58:10.983Z,6.64
2019-03-10T06:59:10.964Z,6.35
2019-03-10T07:00:10.953Z,6.22
2019-03-10T07:01:10.939Z,6.11
2019-03-10T07:02:10.925Z,5.99
2019-03-10T07:03:10.922Z,6.02
2019-03-10T07:04:10.901Z,5.94
2019-03-10T07:05:10.928Z,5.84
2019-03-10T07:06:10.885Z,5.76
2019-03-10T07:07:10.876Z,5.79
2019-03-10T07:08:10.856Z,5.65
2019-03-10T07:09:10.854Z,5.73
2019-03-10T07:10:10.854Z,5.66
2019-03-10T07:11:10.851Z,5.71
2019-03-10T07:12:10.819Z,5.79
2019-03-10T07:13:10.810Z,5.73
2019-03-10T07:14:10.795Z,5.64
2019-03-10T07:15:10.777Z,5.54
2019-03-10T07:16:10.775Z,5.54
2019-03-10T07:17:10.832Z,5.59
2019-03-10T07:18:11.013Z,5.72
2019-03-10T07:19:10.733Z,5.79
2019-03-10T07:20:10.760Z,5.65
2019-03-10T07:21:10.719Z,5.80
2019-03-10T07:22:10.704Z,5.84
2019-03-10T07:23:10.725Z,5.79
2019-03-10T07:24:10.682Z,5.87
2019-03-10T07:25:10.673Z,5.87
2019-03-10T07:26:10.654Z,5.87
2019-03-10T07:27:10.648Z,5.89
2019-03-10T07:28:10.640Z,5.89
2019-03-10T07:29:10.644Z,5.76
2019-03-10T07:30:10.614Z,5.94
2019-03-10T07:31:10.613Z,5.99
2019-03-10T07:32:10.588Z,5.94
2019-03-10T07:33:10.581Z,6.08
2019-03-10T07:34:10.586Z,6.01
2019-03-10T07:35:10.553Z,6.02
2019-03-10T07:36:10.544Z,6.04
2019-03-10T07:37:10.544Z,6.08
2019-03-10T07:38:10.521Z,6.02
2019-03-10T07:39:10.527Z,6.08
2019-03-10T07:40:10.497Z,6.05
2019-03-10T07:41:10.492Z,5.99
2019-03-10T07:42:10.485Z,6.05
2019-03-10T07:43:10.467Z,6.04
2019-03-10T07:44:10.470Z,6.11
2019-03-10T07:45:10.455Z,6.16
2019-03-10T07:46:10.445Z,6.17
2019-03-10T07:47:10.463Z,6.24
2019-03-10T07:48:10.410Z,6.17
2019-03-10T07:49:10.407Z,6.35
2019-03-10T07:50:10.399Z,6.28
2019-03-10T07:51:10.384Z,6.38
2019-03-10T07:52:19.785Z,6.52
2019-03-10T07:53:11.361Z,6.51
2019-03-10T07:54:10.344Z,6.54
2019-03-10T07:55:10.398Z,6.54
2019-03-10T07:56:11.466Z,6.67
2019-03-10T07:57:10.327Z,6.62
2019-03-10T07:58:10.307Z,6.74
2019-03-10T07:59:10.293Z,6.81
2019-03-10T08:00:10.285Z,6.97
2019-03-10T08:01:10.321Z,6.96
2019-03-10T08:02:10.257Z,6.95
2019-03-10T08:03:10.251Z,6.97
2019-03-10T08:04:10.248Z,6.96
2019-03-10T08:05:10.232Z,6.89
2019-03-10T08:06:10.219Z,6.97
2019-03-10T08:07:10.247Z,7.00
2019-03-10T08:08:10.194Z,7.07
2019-03-10T08:09:10.179Z,7.11
2019-03-10T08:10:10.173Z,7.14
2019-03-10T08:11:10.157Z,7.31
2019-03-10T08:12:10.148Z,7.18
2019-03-10T08:13:10.155Z,7.32
2019-03-10T08:14:10.127Z,7.35
2019-03-10T08:15:10.121Z,7.48
2019-03-10T08:16:10.105Z,7.57
2019-03-10T08:17:10.091Z,7.80
2019-03-10T08:18:10.195Z,7.94
2019-03-10T08:19:10.076Z,7.97
2019-03-10T08:20:10.069Z,7.88
2019-03-10T08:21:10.047Z,7.57
2019-03-10T08:22:10.050Z,7.61
2019-03-10T08:23:10.026Z,7.58
2019-03-10T08:24:10.024Z,7.48
2019-03-10T08:25:10.009Z,7.56
2019-03-10T08:26:09.993Z,7.70
2019-03-10T08:27:09.987Z,7.69
2019-03-10T08:28:09.976Z,7.54
2019-03-10T08:29:09.976Z,7.54
2019-03-10T08:30:09.949Z,7.51
2019-03-10T08:31:09.940Z,7.47
2019-03-10T08:32:09.934Z,7.48
2019-03-10T08:33:09.918Z,7.54
2019-03-10T08:34:09.940Z,7.51
2019-03-10T08:35:09.905Z,7.50
2019-03-10T08:36:09.882Z,7.50
2019-03-10T08:37:09.879Z,7.53
2019-03-10T08:38:09.860Z,7.73
2019-03-10T08:39:09.862Z,7.97
2019-03-10T08:40:09.854Z,8.00
2019-03-10T08:41:09.831Z,7.87
2019-03-10T08:42:19.440Z,8.00
2019-03-10T08:43:10.809Z,8.13
2019-03-10T08:44:09.794Z,8.19
2019-03-10T08:45:09.816Z,8.41
2019-03-10T08:46:09.782Z,8.30
2019-03-10T08:47:09.761Z,8.15
2019-03-10T08:48:09.751Z,8.00
2019-03-10T08:49:09.745Z,8.01
2019-03-10T08:50:09.791Z,7.98
2019-03-10T08:51:09.717Z,8.01
2019-03-10T08:52:09.708Z,7.97
2019-03-10T08:53:09.702Z,8.01
2019-03-10T08:54:09.688Z,7.98
2019-03-10T08:55:09.675Z,7.94
2019-03-10T08:56:09.682Z,8.03
2019-03-10T08:57:09.652Z,7.97
2019-03-10T08:58:09.657Z,8.09
2019-03-10T08:59:09.631Z,8.12
2019-03-10T09:00:09.621Z,8.06
2019-03-10T09:01:10.295Z,8.01
2019-03-10T09:02:09.599Z,8.10
2019-03-10T09:03:09.587Z,8.18
2019-03-10T09:04:09.578Z,8.12
2019-03-10T09:05:09.571Z,8.16
2019-03-10T09:06:09.578Z,8.26
2019-03-10T09:07:09.550Z,8.20
2019-03-10T09:08:09.546Z,8.00
2019-03-10T09:09:09.523Z,8.10
2019-03-10T09:10:09.515Z,8.20
2019-03-10T09:11:09.506Z,8.28
2019-03-10T09:12:09.567Z,8.15
2019-03-10T09:13:09.485Z,8.01
2019-03-10T09:14:09.486Z,8.05
2019-03-10T09:15:09.470Z,8.12
2019-03-10T09:16:09.499Z,8.16
2019-03-10T09:17:09.480Z,8.38
2019-03-10T09:18:09.435Z,8.51
2019-03-10T09:19:09.428Z,8.45
2019-03-10T09:20:09.406Z,8.41
2019-03-10T09:21:09.411Z,8.34
2019-03-10T09:22:09.388Z,8.45
2019-03-10T09:23:09.386Z,8.60
2019-03-10T09:24:09.369Z,8.67
2019-03-10T09:25:09.352Z,8.91
2019-03-10T09:26:09.342Z,8.85
2019-03-10T09:27:09.338Z,8.88
2019-03-10T09:28:09.327Z,8.82
2019-03-10T09:29:09.324Z,8.81
2019-03-10T09:30:09.303Z,8.85
2019-03-10T09:31:09.369Z,9.04
2019-03-10T09:32:09.281Z,9.13
2019-03-10T09:33:09.269Z,9.13
2019-03-10T09:34:09.267Z,9.34
2019-03-10T09:35:09.248Z,9.41
2019-03-10T09:36:09.239Z,9.46
2019-03-10T09:37:09.223Z,9.04
2019-03-10T09:38:09.294Z,8.95
2019-03-10T09:39:09.243Z,8.92
2019-03-10T09:40:09.186Z,8.95
2019-03-10T09:41:09.174Z,8.84
2019-03-10T09:42:09.167Z,8.94
2019-03-10T09:43:09.153Z,8.85
2019-03-10T09:44:09.149Z,8.85
2019-03-10T09:45:09.146Z,8.61
2019-03-10T09:46:09.118Z,8.53
2019-03-10T09:47:09.125Z,8.53
2019-03-10T09:48:09.102Z,8.52
2019-03-10T09:49:09.090Z,8.60
2019-03-10T09:50:09.084Z,8.60
2019-03-10T09:51:09.106Z,8.60
2019-03-10T09:52:09.050Z,8.66
2019-03-10T09:53:09.051Z,8.58
2019-03-10T09:54:09.033Z,8.63
2019-03-10T09:55:09.016Z,8.66
2019-03-10T09:56:09.005Z,8.74
2019-03-10T09:57:09.014Z,8.69
2019-03-10T09:58:08.988Z,8.58
2019-03-10T09:59:08.977Z,8.67
2019-03-10T10:00:08.976Z,8.69
2019-03-10T10:01:08.970Z,8.67
2019-03-10T10:02:08.946Z,8.58
2019-03-10T10:03:08.934Z,8.66
2019-03-10T10:04:08.926Z,8.64
2019-03-10T10:05:08.909Z,8.63
2019-03-10T10:06:08.956Z,8.56
2019-03-10T10:07:08.924Z,8.41
2019-03-10T10:08:08.879Z,8.36
2019-03-10T10:09:08.865Z,8.42
2019-03-10T10:10:08.858Z,8.45
2019-03-10T10:11:08.842Z,8.55
2019-03-10T10:12:13.339Z,8.71
2019-03-10T10:13:09.824Z,8.64
2019-03-10T10:14:08.816Z,8.88
2019-03-10T10:15:08.802Z,8.84
2019-03-10T10:16:08.788Z,8.91
2019-03-10T10:17:08.814Z,8.88
2019-03-10T10:18:08.767Z,8.84
2019-03-10T10:19:08.762Z,8.58
2019-03-10T10:20:08.763Z,8.56
2019-03-10T10:21:08.740Z,8.60
2019-03-10T10:22:08.723Z,8.42
2019-03-10T10:23:08.724Z,8.41
2019-03-10T10:24:08.733Z,8.30
2019-03-10T10:25:08.693Z,8.44
2019-03-10T10:26:10.922Z,8.38
2019-03-10T10:27:08.697Z,8.44
2019-03-10T10:28:08.670Z,8.44
2019-03-10T10:29:08.647Z,8.46
2019-03-10T10:30:08.739Z,8.51
2019-03-10T10:31:08.625Z,8.46
2019-03-10T10:32:08.622Z,8.45
2019-03-10T10:33:08.664Z,8.48
2019-03-10T10:34:08.597Z,8.46
2019-03-10T10:35:08.586Z,8.31
2019-03-10T10:36:08.622Z,8.31
2019-03-10T10:37:08.563Z,8.30
2019-03-10T10:38:18.173Z,8.23
2019-03-10T10:39:09.567Z,8.19
2019-03-10T10:40:08.534Z,8.16
2019-03-10T10:41:08.519Z,8.18
2019-03-10T10:42:08.528Z,8.15
2019-03-10T10:43:08.534Z,8.20
2019-03-10T10:44:08.482Z,8.13
2019-03-10T10:45:08.472Z,8.18
2019-03-10T10:46:08.463Z,8.18
2019-03-10T10:47:08.449Z,8.03
2019-03-10T10:48:08.456Z,8.12
2019-03-10T10:49:08.433Z,8.18
2019-03-10T10:50:08.456Z,8.09
2019-03-10T10:51:08.413Z,8.10
2019-03-10T10:52:08.408Z,8.12
2019-03-10T10:53:08.468Z,8.12
2019-03-10T10:54:08.377Z,8.10
2019-03-10T10:55:08.369Z,8.01
2019-03-10T10:56:08.387Z,8.05
2019-03-10T10:57:08.354Z,8.05
2019-03-10T10:58:08.336Z,7.98
2019-03-10T10:59:08.328Z,7.97
2019-03-10T11:00:08.308Z,7.97
2019-03-10T11:01:10.014Z,7.93
2019-03-10T11:02:08.292Z,7.90
2019-03-10T11:03:08.283Z,7.88
2019-03-10T11:04:08.294Z,7.95
2019-03-10T11:05:08.265Z,7.87
2019-03-10T11:06:08.244Z,7.77
2019-03-10T11:07:08.245Z,7.76
2019-03-10T11:08:08.224Z,7.69
2019-03-10T11:09:08.228Z,7.60
2019-03-10T11:10:08.227Z,7.54
2019-03-10T11:11:08.185Z,7.51
2019-03-10T11:12:08.182Z,7.43
2019-03-10T11:13:08.174Z,7.31
2019-03-10T11:14:08.153Z,7.29
2019-03-10T11:15:08.145Z,7.25
2019-03-10T11:16:08.145Z,7.17
2019-03-10T11:17:08.124Z,7.13
2019-03-10T11:18:09.688Z,7.18
2019-03-10T11:19:08.118Z,6.99
2019-03-10T11:20:08.093Z,7.05
2019-03-10T11:21:08.113Z,7.02
2019-03-10T11:22:08.067Z,7.10
2019-03-10T11:23:08.060Z,7.07
2019-03-10T11:24:08.048Z,7.05
2019-03-10T11:25:08.040Z,7.10
2019-03-10T11:26:08.623Z,7.13
2019-03-10T11:27:08.047Z,7.13
2019-03-10T11:28:08.003Z,7.33
2019-03-10T11:29:07.994Z,7.32
2019-03-10T11:30:07.989Z,7.29
2019-03-10T11:31:07.968Z,7.38
2019-03-10T11:32:07.972Z,7.39
2019-03-10T11:33:07.958Z,7.39
2019-03-10T11:34:07.939Z,7.43
2019-03-10T11:35:07.923Z,7.42
2019-03-10T11:36:07.922Z,7.32
2019-03-10T11:37:07.906Z,7.35
2019-03-10T11:38:07.906Z,7.23
2019-03-10T11:39:07.896Z,7.29
2019-03-10T11:40:07.877Z,7.38
2019-03-10T11:41:07.878Z,7.33
2019-03-10T11:42:07.858Z,7.23
2019-03-10T11:43:07.841Z,7.23
2019-03-10T11:44:07.881Z,7.11
2019-03-10T11:45:07.843Z,7.03
2019-03-10T11:46:07.805Z,7.06
2019-03-10T11:47:07.793Z,6.92
2019-03-10T11:48:07.782Z,6.70
2019-03-10T11:49:07.777Z,6.70
2019-03-10T11:50:07.772Z,6.81
2019-03-10T11:51:07.750Z,6.63
2019-03-10T11:52:07.738Z,6.67
2019-03-10T11:53:18.254Z,6.64
2019-03-10T11:54:08.728Z,6.60
2019-03-10T11:55:07.784Z,6.46
2019-03-10T11:56:07.694Z,6.52
2019-03-10T11:57:07.688Z,6.52
2019-03-10T11:58:07.676Z,6.46
2019-03-10T11:59:07.668Z,6.41
2019-03-10T12:00:07.663Z,6.48
2019-03-10T12:01:07.647Z,6.48
2019-03-10T12:02:15.610Z,6.49
2019-03-10T12:03:08.661Z,6.45
2019-03-10T12:04:07.607Z,6.45
2019-03-10T12:05:07.709Z,6.46
2019-03-10T12:06:07.662Z,6.49
2019-03-10T12:07:07.724Z,6.54
2019-03-10T12:08:07.659Z,6.51
2019-03-10T12:09:07.600Z,6.45
2019-03-10T12:10:07.639Z,6.54
2019-03-10T12:11:07.678Z,6.59
2019-03-10T12:12:07.559Z,6.44
2019-03-10T12:13:07.513Z,6.60
2019-03-10T12:14:07.602Z,6.64
2019-03-10T12:15:07.516Z,6.66
2019-03-10T12:16:07.497Z,6.74
2019-03-10T12:17:07.601Z,6.77
2019-03-10T12:18:07.464Z,6.85
2019-03-10T12:19:07.461Z,6.93
2019-03-10T12:20:07.448Z,6.99
2019-03-10T12:21:07.418Z,6.92
2019-03-10T12:22:07.423Z,6.96
2019-03-10T12:23:07.429Z,6.89
2019-03-10T12:24:07.443Z,6.89
2019-03-10T12:25:07.415Z,7.03
2019-03-10T12:26:07.413Z,7.15
2019-03-10T12:27:07.370Z,7.23
2019-03-10T12:28:07.374Z,7.28
2019-03-10T12:29:07.353Z,7.29
2019-03-10T12:30:07.343Z,7.21
2019-03-10T12:31:07.354Z,7.21
2019-03-10T12:32:07.318Z,7.07
2019-03-10T12:33:07.342Z,7.14
2019-03-10T12:34:07.292Z,6.96
2019-03-10T12:35:07.286Z,7.05
2019-03-10T12:36:07.259Z,6.97
2019-03-10T12:37:07.271Z,6.93
2019-03-10T12:38:07.250Z,7.00
2019-03-10T12:39:07.234Z,6.88
2019-03-10T12:40:07.211Z,6.81
2019-03-10T12:41:07.213Z,6.64
2019-03-10T12:42:07.213Z,6.57
2019-03-10T12:43:07.187Z,6.46
2019-03-10T12:44:07.222Z,6.49
2019-03-10T12:45:07.186Z,6.56
2019-03-10T12:46:07.213Z,6.62
2019-03-10T12:47:07.165Z,6.66
2019-03-10T12:48:07.126Z,6.64
2019-03-10T12:49:07.126Z,6.64
2019-03-10T12:50:07.119Z,6.56
2019-03-10T12:51:07.091Z,6.56
2019-03-10T12:52:07.089Z,6.63
2019-03-10T12:53:07.070Z,6.62
2019-03-10T12:54:07.136Z,6.56
2019-03-10T12:55:07.083Z,6.41
2019-03-10T12:56:07.050Z,6.49
2019-03-10T12:57:07.061Z,6.54
2019-03-10T12:58:07.013Z,6.44
2019-03-10T12:59:07.015Z,6.56
2019-03-10T13:00:07.038Z,6.62
2019-03-10T13:01:07.122Z,6.51
2019-03-10T13:02:06.977Z,6.57
2019-03-10T13:03:07.016Z,6.46
2019-03-10T13:04:07.010Z,6.60
2019-03-10T13:05:06.960Z,6.51
2019-03-10T13:06:06.939Z,6.57
2019-03-10T13:07:06.933Z,6.52
2019-03-10T13:08:06.924Z,6.46
2019-03-10T13:09:06.931Z,6.38
2019-03-10T13:10:06.880Z,6.28
2019-03-10T13:11:06.936Z,6.31
2019-03-10T13:12:06.863Z,6.36
2019-03-10T13:13:06.847Z,6.52
2019-03-10T13:14:06.858Z,6.49
2019-03-10T13:15:06.842Z,6.38
2019-03-10T13:16:06.829Z,6.36
2019-03-10T13:17:06.806Z,6.36
2019-03-10T13:18:08.488Z,6.33